sensor_id;sensor_type;location;lat;lon;timestamp;P1;durP1;ratioP1;P2;durP2;ratioP2
61116;SDS011;47002;50.856;6.580;2022-08-16T00:00:22;0.00;;;0.00;;
61116;SDS011;47002;50.856;6.580;2022-08-16T00:02:51;0.00;;;0.00;;
61116;SDS011;47002;50.856;6.580;2022-08-16T00:05:18;0.00;;;0.00;;
61116;SDS011;47002;50.856;6.580;2022-08-16T00:07:45;0.00;;;0.00;;
61116;SDS011;47002;50.856;6.580;2022-08-16T00:10:11;0.00;;;0.00;;
61116;SDS011;47002;50.856;6.580;2022-08-16T00:12:39;0.00;;;0.00;;
61116;SDS011;47002;50.856;6.580;2022-08-16T00:15:06;0.00;;;0.00;;
61116;SDS011;47002;50.856;6.580;2022-08-16T00:17:35;0.00;;;0.00;;
61116;SDS011;47002;50.856;6.580;2022-08-16T00:20:02;0.00;;;0.00;;
61116;SDS011;47002;50.856;6.580;2022-08-16T00:22:28;0.00;;;0.00;;
61116;SDS011;47002;50.856;6.580;2022-08-16T00:24:54;0.00;;;0.00;;
61116;SDS011;47002;50.856;6.580;2022-08-16T00:27:20;0.00;;;0.00;;
61116;SDS011;47002;50.856;6.580;2022-08-16T00:29:46;0.00;;;0.00;;
61116;SDS011;47002;50.856;6.580;2022-08-16T00:32:12;0.00;;;0.00;;
61116;SDS011;47002;50.856;6.580;2022-08-16T00:34:38;0.00;;;0.00;;
61116;SDS011;47002;50.856;6.580;2022-08-16T00:37:05;0.00;;;0.00;;
61116;SDS011;47002;50.856;6.580;2022-08-16T00:39:31;0.00;;;0.00;;
61116;SDS011;47002;50.856;6.580;2022-08-16T00:41:57;0.00;;;0.00;;
61116;SDS011;47002;50.856;6.580;2022-08-16T00:44:22;0.00;;;0.00;;
61116;SDS011;47002;50.856;6.580;2022-08-16T00:46:49;0.00;;;0.00;;
61116;SDS011;47002;50.856;6.580;2022-08-16T00:49:19;0.00;;;0.00;;
61116;SDS011;47002;50.856;6.580;2022-08-16T00:51:45;0.00;;;0.00;;
61116;SDS011;47002;50.856;6.580;2022-08-16T00:54:13;0.00;;;0.00;;
61116;SDS011;47002;50.856;6.580;2022-08-16T00:56:40;0.00;;;0.00;;
61116;SDS011;47002;50.856;6.580;2022-08-16T00:59:09;0.00;;;0.00;;
61116;SDS011;47002;50.856;6.580;2022-08-16T01:01:37;0.00;;;0.00;;
61116;SDS011;47002;50.856;6.580;2022-08-16T01:04:04;0.00;;;0.00;;
61116;SDS011;47002;50.856;6.580;2022-08-16T01:06:30;0.00;;;0.00;;
61116;SDS011;47002;50.856;6.580;2022-08-16T01:08:56;0.00;;;0.00;;
61116;SDS011;47002;50.856;6.580;2022-08-16T01:11:25;0.00;;;0.00;;
61116;SDS011;47002;50.856;6.580;2022-08-16T01:13:52;0.00;;;0.00;;
61116;SDS011;47002;50.856;6.580;2022-08-16T01:16:22;0.00;;;0.00;;
61116;SDS011;47002;50.856;6.580;2022-08-16T01:18:51;0.00;;;0.00;;
61116;SDS011;47002;50.856;6.580;2022-08-16T01:21:24;0.00;;;0.00;;
61116;SDS011;47002;50.856;6.580;2022-08-16T01:24:06;0.00;;;0.00;;
61116;SDS011;47002;50.856;6.580;2022-08-16T01:26:39;0.00;;;0.00;;
61116;SDS011;47002;50.856;6.580;2022-08-16T01:29:07;0.00;;;0.00;;
61116;SDS011;47002;50.856;6.580;2022-08-16T01:31:37;0.00;;;0.00;;
61116;SDS011;47002;50.856;6.580;2022-08-16T01:34:04;0.00;;;0.00;;
61116;SDS011;47002;50.856;6.580;2022-08-16T01:36:30;0.00;;;0.00;;
61116;SDS011;47002;50.856;6.580;2022-08-16T01:38:56;0.00;;;0.00;;
61116;SDS011;47002;50.856;6.580;2022-08-16T01:41:25;0.00;;;0.00;;
61116;SDS011;47002;50.856;6.580;2022-08-16T01:43:52;0.00;;;0.00;;
61116;SDS011;47002;50.856;6.580;2022-08-16T01:46:20;0.00;;;0.00;;
61116;SDS011;47002;50.856;6.580;2022-08-16T01:48:47;0.00;;;0.00;;
61116;SDS011;47002;50.856;6.580;2022-08-16T01:51:17;0.00;;;0.00;;
61116;SDS011;47002;50.856;6.580;2022-08-16T01:53:45;0.00;;;0.00;;
61116;SDS011;47002;50.856;6.580;2022-08-16T01:56:11;0.00;;;0.00;;
61116;SDS011;47002;50.856;6.580;2022-08-16T01:58:38;0.00;;;0.00;;
61116;SDS011;47002;50.856;6.580;2022-08-16T02:01:04;0.00;;;0.00;;
61116;SDS011;47002;50.856;6.580;2022-08-16T02:03:30;0.00;;;0.00;;
61116;SDS011;47002;50.856;6.580;2022-08-16T02:05:56;0.00;;;0.00;;
61116;SDS011;47002;50.856;6.580;2022-08-16T02:08:21;0.00;;;0.00;;
61116;SDS011;47002;50.856;6.580;2022-08-16T02:10:47;0.00;;;0.00;;
61116;SDS011;47002;50.856;6.580;2022-08-16T02:13:13;0.00;;;0.00;;
61116;SDS011;47002;50.856;6.580;2022-08-16T02:15:40;0.00;;;0.00;;
61116;SDS011;47002;50.856;6.580;2022-08-16T02:18:06;0.00;;;0.00;;
61116;SDS011;47002;50.856;6.580;2022-08-16T02:20:33;0.00;;;0.00;;
61116;SDS011;47002;50.856;6.580;2022-08-16T02:23:02;0.00;;;0.00;;
61116;SDS011;47002;50.856;6.580;2022-08-16T02:25:28;0.00;;;0.00;;
61116;SDS011;47002;50.856;6.580;2022-08-16T02:27:54;0.00;;;0.00;;
61116;SDS011;47002;50.856;6.580;2022-08-16T02:30:21;0.00;;;0.00;;
61116;SDS011;47002;50.856;6.580;2022-08-16T02:32:50;0.00;;;0.00;;
61116;SDS011;47002;50.856;6.580;2022-08-16T02:35:16;0.00;;;0.00;;
61116;SDS011;47002;50.856;6.580;2022-08-16T02:37:42;0.00;;;0.00;;
61116;SDS011;47002;50.856;6.580;2022-08-16T02:40:08;0.00;;;0.00;;
61116;SDS011;47002;50.856;6.580;2022-08-16T02:42:35;0.00;;;0.00;;
61116;SDS011;47002;50.856;6.580;2022-08-16T02:45:01;0.00;;;0.00;;
61116;SDS011;47002;50.856;6.580;2022-08-16T02:47:28;0.00;;;0.00;;
61116;SDS011;47002;50.856;6.580;2022-08-16T02:49:55;0.00;;;0.00;;
61116;SDS011;47002;50.856;6.580;2022-08-16T02:52:21;0.00;;;0.00;;
61116;SDS011;47002;50.856;6.580;2022-08-16T02:54:46;0.00;;;0.00;;
61116;SDS011;47002;50.856;6.580;2022-08-16T02:57:12;0.00;;;0.00;;
61116;SDS011;47002;50.856;6.580;2022-08-16T02:59:38;0.00;;;0.00;;
61116;SDS011;47002;50.856;6.580;2022-08-16T03:02:04;0.00;;;0.00;;
61116;SDS011;47002;50.856;6.580;2022-08-16T03:04:30;0.00;;;0.00;;
61116;SDS011;47002;50.856;6.580;2022-08-16T03:06:57;0.00;;;0.00;;
61116;SDS011;47002;50.856;6.580;2022-08-16T03:09:23;0.00;;;0.00;;
61116;SDS011;47002;50.856;6.580;2022-08-16T03:11:49;0.00;;;0.00;;
61116;SDS011;47002;50.856;6.580;2022-08-16T03:14:15;0.00;;;0.00;;
61116;SDS011;47002;50.856;6.580;2022-08-16T03:16:41;0.00;;;0.00;;
61116;SDS011;47002;50.856;6.580;2022-08-16T03:19:06;0.00;;;0.00;;
61116;SDS011;47002;50.856;6.580;2022-08-16T03:21:32;0.00;;;0.00;;
61116;SDS011;47002;50.856;6.580;2022-08-16T03:24:00;0.00;;;0.00;;
61116;SDS011;47002;50.856;6.580;2022-08-16T03:26:26;0.00;;;0.00;;
61116;SDS011;47002;50.856;6.580;2022-08-16T03:28:52;0.00;;;0.00;;
61116;SDS011;47002;50.856;6.580;2022-08-16T03:31:17;0.00;;;0.00;;
61116;SDS011;47002;50.856;6.580;2022-08-16T03:33:43;0.00;;;0.00;;
61116;SDS011;47002;50.856;6.580;2022-08-16T03:36:09;0.00;;;0.00;;
61116;SDS011;47002;50.856;6.580;2022-08-16T03:38:35;0.00;;;0.00;;
61116;SDS011;47002;50.856;6.580;2022-08-16T03:41:03;0.00;;;0.00;;
61116;SDS011;47002;50.856;6.580;2022-08-16T03:43:30;0.00;;;0.00;;
61116;SDS011;47002;50.856;6.580;2022-08-16T03:45:56;0.00;;;0.00;;
61116;SDS011;47002;50.856;6.580;2022-08-16T03:48:24;0.00;;;0.00;;
61116;SDS011;47002;50.856;6.580;2022-08-16T03:50:51;0.00;;;0.00;;
61116;SDS011;47002;50.856;6.580;2022-08-16T03:53:17;0.00;;;0.00;;
61116;SDS011;47002;50.856;6.580;2022-08-16T03:55:44;0.00;;;0.00;;
61116;SDS011;47002;50.856;6.580;2022-08-16T03:58:11;0.00;;;0.00;;
61116;SDS011;47002;50.856;6.580;2022-08-16T04:00:37;0.00;;;0.00;;
61116;SDS011;47002;50.856;6.580;2022-08-16T04:03:03;0.00;;;0.00;;
61116;SDS011;47002;50.856;6.580;2022-08-16T04:05:30;0.00;;;0.00;;
61116;SDS011;47002;50.856;6.580;2022-08-16T04:07:56;0.00;;;0.00;;
61116;SDS011;47002;50.856;6.580;2022-08-16T04:10:22;0.00;;;0.00;;
61116;SDS011;47002;50.856;6.580;2022-08-16T04:12:48;0.00;;;0.00;;
61116;SDS011;47002;50.856;6.580;2022-08-16T04:15:15;0.00;;;0.00;;
61116;SDS011;47002;50.856;6.580;2022-08-16T04:17:41;0.00;;;0.00;;
61116;SDS011;47002;50.856;6.580;2022-08-16T04:20:08;0.00;;;0.00;;
61116;SDS011;47002;50.856;6.580;2022-08-16T04:22:38;0.00;;;0.00;;
61116;SDS011;47002;50.856;6.580;2022-08-16T04:25:05;0.00;;;0.00;;
61116;SDS011;47002;50.856;6.580;2022-08-16T04:27:32;0.00;;;0.00;;
61116;SDS011;47002;50.856;6.580;2022-08-16T04:29:57;0.00;;;0.00;;
61116;SDS011;47002;50.856;6.580;2022-08-16T04:32:25;0.00;;;0.00;;
61116;SDS011;47002;50.856;6.580;2022-08-16T04:34:51;0.00;;;0.00;;
61116;SDS011;47002;50.856;6.580;2022-08-16T04:37:16;0.00;;;0.00;;
61116;SDS011;47002;50.856;6.580;2022-08-16T04:39:42;0.00;;;0.00;;
61116;SDS011;47002;50.856;6.580;2022-08-16T04:42:08;0.00;;;0.00;;
61116;SDS011;47002;50.856;6.580;2022-08-16T04:44:34;0.00;;;0.00;;
61116;SDS011;47002;50.856;6.580;2022-08-16T04:46:59;0.00;;;0.00;;
61116;SDS011;47002;50.856;6.580;2022-08-16T04:49:27;0.00;;;0.00;;
61116;SDS011;47002;50.856;6.580;2022-08-16T04:51:53;0.00;;;0.00;;
61116;SDS011;47002;50.856;6.580;2022-08-16T04:54:18;0.00;;;0.00;;
61116;SDS011;47002;50.856;6.580;2022-08-16T04:56:44;0.00;;;0.00;;
61116;SDS011;47002;50.856;6.580;2022-08-16T04:59:10;0.00;;;0.00;;
61116;SDS011;47002;50.856;6.580;2022-08-16T05:01:36;0.00;;;0.00;;
61116;SDS011;47002;50.856;6.580;2022-08-16T05:04:02;0.00;;;0.00;;
61116;SDS011;47002;50.856;6.580;2022-08-16T05:06:30;0.00;;;0.00;;
61116;SDS011;47002;50.856;6.580;2022-08-16T05:08:56;0.00;;;0.00;;
61116;SDS011;47002;50.856;6.580;2022-08-16T05:11:21;0.00;;;0.00;;
61116;SDS011;47002;50.856;6.580;2022-08-16T05:13:48;0.00;;;0.00;;
61116;SDS011;47002;50.856;6.580;2022-08-16T05:16:16;0.00;;;0.00;;
61116;SDS011;47002;50.856;6.580;2022-08-16T05:18:43;0.00;;;0.00;;
61116;SDS011;47002;50.856;6.580;2022-08-16T05:21:08;0.00;;;0.00;;
61116;SDS011;47002;50.856;6.580;2022-08-16T05:23:36;0.00;;;0.00;;
61116;SDS011;47002;50.856;6.580;2022-08-16T05:26:02;0.00;;;0.00;;
61116;SDS011;47002;50.856;6.580;2022-08-16T05:28:27;0.00;;;0.00;;
61116;SDS011;47002;50.856;6.580;2022-08-16T05:30:54;0.00;;;0.00;;
61116;SDS011;47002;50.856;6.580;2022-08-16T05:33:20;0.00;;;0.00;;
61116;SDS011;47002;50.856;6.580;2022-08-16T05:35:46;0.00;;;0.00;;
61116;SDS011;47002;50.856;6.580;2022-08-16T05:38:14;0.00;;;0.00;;
61116;SDS011;47002;50.856;6.580;2022-08-16T05:40:44;0.00;;;0.00;;
61116;SDS011;47002;50.856;6.580;2022-08-16T05:43:10;0.00;;;0.00;;
61116;SDS011;47002;50.856;6.580;2022-08-16T05:45:36;0.00;;;0.00;;
61116;SDS011;47002;50.856;6.580;2022-08-16T05:48:02;0.00;;;0.00;;
61116;SDS011;47002;50.856;6.580;2022-08-16T05:50:28;0.00;;;0.00;;
61116;SDS011;47002;50.856;6.580;2022-08-16T05:52:54;0.00;;;0.00;;
61116;SDS011;47002;50.856;6.580;2022-08-16T05:55:20;0.00;;;0.00;;
61116;SDS011;47002;50.856;6.580;2022-08-16T05:57:47;0.03;;;0.00;;
61116;SDS011;47002;50.856;6.580;2022-08-16T06:00:13;0.00;;;0.00;;
61116;SDS011;47002;50.856;6.580;2022-08-16T06:02:39;0.00;;;0.00;;
61116;SDS011;47002;50.856;6.580;2022-08-16T06:05:05;0.00;;;0.00;;
61116;SDS011;47002;50.856;6.580;2022-08-16T06:07:32;0.00;;;0.00;;
61116;SDS011;47002;50.856;6.580;2022-08-16T06:09:58;0.00;;;0.00;;
61116;SDS011;47002;50.856;6.580;2022-08-16T06:12:25;0.08;;;0.00;;
61116;SDS011;47002;50.856;6.580;2022-08-16T06:14:52;0.00;;;0.00;;
61116;SDS011;47002;50.856;6.580;2022-08-16T06:17:18;0.00;;;0.00;;
61116;SDS011;47002;50.856;6.580;2022-08-16T06:19:43;0.00;;;0.00;;
61116;SDS011;47002;50.856;6.580;2022-08-16T06:22:09;0.00;;;0.00;;
61116;SDS011;47002;50.856;6.580;2022-08-16T06:24:35;0.00;;;0.00;;
61116;SDS011;47002;50.856;6.580;2022-08-16T06:27:01;0.00;;;0.00;;
61116;SDS011;47002;50.856;6.580;2022-08-16T06:29:27;0.00;;;0.00;;
61116;SDS011;47002;50.856;6.580;2022-08-16T06:31:54;0.00;;;0.00;;
61116;SDS011;47002;50.856;6.580;2022-08-16T06:34:20;0.00;;;0.00;;
61116;SDS011;47002;50.856;6.580;2022-08-16T06:36:46;0.00;;;0.00;;
61116;SDS011;47002;50.856;6.580;2022-08-16T06:39:12;0.00;;;0.00;;
61116;SDS011;47002;50.856;6.580;2022-08-16T06:41:37;0.00;;;0.00;;
61116;SDS011;47002;50.856;6.580;2022-08-16T06:44:03;0.00;;;0.00;;
61116;SDS011;47002;50.856;6.580;2022-08-16T06:46:30;0.00;;;0.00;;
61116;SDS011;47002;50.856;6.580;2022-08-16T06:48:58;0.00;;;0.00;;
61116;SDS011;47002;50.856;6.580;2022-08-16T06:51:24;0.00;;;0.00;;
61116;SDS011;47002;50.856;6.580;2022-08-16T06:53:50;0.00;;;0.00;;
61116;SDS011;47002;50.856;6.580;2022-08-16T06:56:16;0.00;;;0.00;;
61116;SDS011;47002;50.856;6.580;2022-08-16T06:58:42;0.00;;;0.00;;
61116;SDS011;47002;50.856;6.580;2022-08-16T07:01:07;0.00;;;0.00;;
61116;SDS011;47002;50.856;6.580;2022-08-16T07:03:33;0.00;;;0.00;;
61116;SDS011;47002;50.856;6.580;2022-08-16T07:06:01;0.00;;;0.00;;
61116;SDS011;47002;50.856;6.580;2022-08-16T07:08:27;0.00;;;0.00;;
61116;SDS011;47002;50.856;6.580;2022-08-16T07:10:53;0.00;;;0.00;;
61116;SDS011;47002;50.856;6.580;2022-08-16T07:13:20;0.00;;;0.00;;
61116;SDS011;47002;50.856;6.580;2022-08-16T07:15:46;0.05;;;0.03;;
61116;SDS011;47002;50.856;6.580;2022-08-16T07:18:11;0.00;;;0.00;;
61116;SDS011;47002;50.856;6.580;2022-08-16T07:20:37;0.00;;;0.00;;
61116;SDS011;47002;50.856;6.580;2022-08-16T07:23:05;0.03;;;0.03;;
61116;SDS011;47002;50.856;6.580;2022-08-16T07:25:31;0.00;;;0.00;;
61116;SDS011;47002;50.856;6.580;2022-08-16T07:27:57;0.00;;;0.00;;
61116;SDS011;47002;50.856;6.580;2022-08-16T07:30:23;0.00;;;0.00;;
61116;SDS011;47002;50.856;6.580;2022-08-16T07:32:49;0.00;;;0.00;;
61116;SDS011;47002;50.856;6.580;2022-08-16T07:35:15;0.00;;;0.00;;
61116;SDS011;47002;50.856;6.580;2022-08-16T07:37:41;0.00;;;0.00;;
61116;SDS011;47002;50.856;6.580;2022-08-16T07:40:09;0.00;;;0.00;;
61116;SDS011;47002;50.856;6.580;2022-08-16T07:42:36;0.00;;;0.00;;
61116;SDS011;47002;50.856;6.580;2022-08-16T07:45:02;0.00;;;0.00;;
61116;SDS011;47002;50.856;6.580;2022-08-16T07:47:28;0.00;;;0.00;;
61116;SDS011;47002;50.856;6.580;2022-08-16T07:49:54;0.00;;;0.00;;
61116;SDS011;47002;50.856;6.580;2022-08-16T07:52:19;0.00;;;0.00;;
61116;SDS011;47002;50.856;6.580;2022-08-16T07:54:45;0.00;;;0.00;;
61116;SDS011;47002;50.856;6.580;2022-08-16T07:57:12;0.00;;;0.00;;
61116;SDS011;47002;50.856;6.580;2022-08-16T07:59:38;0.00;;;0.00;;
61116;SDS011;47002;50.856;6.580;2022-08-16T08:02:04;0.10;;;0.10;;
61116;SDS011;47002;50.856;6.580;2022-08-16T08:04:30;0.00;;;0.00;;
61116;SDS011;47002;50.856;6.580;2022-08-16T08:06:56;0.00;;;0.00;;
61116;SDS011;47002;50.856;6.580;2022-08-16T08:09:22;0.00;;;0.00;;
61116;SDS011;47002;50.856;6.580;2022-08-16T08:11:47;0.00;;;0.00;;
61116;SDS011;47002;50.856;6.580;2022-08-16T08:14:14;0.10;;;0.10;;
61116;SDS011;47002;50.856;6.580;2022-08-16T08:16:41;0.10;;;0.10;;
61116;SDS011;47002;50.856;6.580;2022-08-16T08:19:07;0.00;;;0.00;;
61116;SDS011;47002;50.856;6.580;2022-08-16T08:21:33;0.05;;;0.05;;
61116;SDS011;47002;50.856;6.580;2022-08-16T08:23:59;0.00;;;0.00;;
61116;SDS011;47002;50.856;6.580;2022-08-16T08:26:25;0.00;;;0.00;;
61116;SDS011;47002;50.856;6.580;2022-08-16T08:28:50;0.00;;;0.00;;
61116;SDS011;47002;50.856;6.580;2022-08-16T08:31:18;0.00;;;0.00;;
61116;SDS011;47002;50.856;6.580;2022-08-16T08:33:43;0.00;;;0.00;;
61116;SDS011;47002;50.856;6.580;2022-08-16T08:36:09;0.10;;;0.10;;
61116;SDS011;47002;50.856;6.580;2022-08-16T08:38:35;0.10;;;0.10;;
61116;SDS011;47002;50.856;6.580;2022-08-16T08:41:01;0.00;;;0.00;;
61116;SDS011;47002;50.856;6.580;2022-08-16T08:43:27;0.10;;;0.10;;
61116;SDS011;47002;50.856;6.580;2022-08-16T08:45:53;0.00;;;0.00;;
61116;SDS011;47002;50.856;6.580;2022-08-16T08:48:20;0.08;;;0.08;;
61116;SDS011;47002;50.856;6.580;2022-08-16T08:50:46;0.10;;;0.10;;
61116;SDS011;47002;50.856;6.580;2022-08-16T08:53:12;0.10;;;0.10;;
61116;SDS011;47002;50.856;6.580;2022-08-16T08:55:38;0.00;;;0.00;;
61116;SDS011;47002;50.856;6.580;2022-08-16T08:58:04;0.10;;;0.10;;
61116;SDS011;47002;50.856;6.580;2022-08-16T09:00:29;0.10;;;0.10;;
61116;SDS011;47002;50.856;6.580;2022-08-16T09:02:56;0.10;;;0.10;;
61116;SDS011;47002;50.856;6.580;2022-08-16T09:05:23;0.10;;;0.10;;
61116;SDS011;47002;50.856;6.580;2022-08-16T09:07:49;0.10;;;0.10;;
61116;SDS011;47002;50.856;6.580;2022-08-16T09:10:15;0.10;;;0.10;;
61116;SDS011;47002;50.856;6.580;2022-08-16T09:12:41;0.10;;;0.10;;
61116;SDS011;47002;50.856;6.580;2022-08-16T09:15:08;0.10;;;0.10;;
61116;SDS011;47002;50.856;6.580;2022-08-16T09:17:35;0.10;;;0.10;;
61116;SDS011;47002;50.856;6.580;2022-08-16T09:20:01;0.10;;;0.10;;
61116;SDS011;47002;50.856;6.580;2022-08-16T09:22:30;0.10;;;0.10;;
61116;SDS011;47002;50.856;6.580;2022-08-16T09:24:56;0.10;;;0.10;;
61116;SDS011;47002;50.856;6.580;2022-08-16T09:27:22;0.10;;;0.10;;
61116;SDS011;47002;50.856;6.580;2022-08-16T09:29:48;0.10;;;0.10;;
61116;SDS011;47002;50.856;6.580;2022-08-16T09:32:14;0.10;;;0.10;;
61116;SDS011;47002;50.856;6.580;2022-08-16T09:34:39;0.10;;;0.10;;
61116;SDS011;47002;50.856;6.580;2022-08-16T09:37:05;0.10;;;0.10;;
61116;SDS011;47002;50.856;6.580;2022-08-16T09:39:32;0.10;;;0.10;;
61116;SDS011;47002;50.856;6.580;2022-08-16T09:41:58;0.10;;;0.10;;
61116;SDS011;47002;50.856;6.580;2022-08-16T09:44:23;0.10;;;0.10;;
61116;SDS011;47002;50.856;6.580;2022-08-16T09:46:50;0.10;;;0.10;;
61116;SDS011;47002;50.856;6.580;2022-08-16T09:49:16;0.10;;;0.10;;
61116;SDS011;47002;50.856;6.580;2022-08-16T09:51:43;0.10;;;0.10;;
61116;SDS011;47002;50.856;6.580;2022-08-16T09:54:08;0.10;;;0.10;;
61116;SDS011;47002;50.856;6.580;2022-08-16T09:56:39;0.10;;;0.10;;
61116;SDS011;47002;50.856;6.580;2022-08-16T09:59:06;0.20;;;0.20;;
61116;SDS011;47002;50.856;6.580;2022-08-16T10:01:33;0.10;;;0.10;;
61116;SDS011;47002;50.856;6.580;2022-08-16T10:03:59;0.20;;;0.20;;
61116;SDS011;47002;50.856;6.580;2022-08-16T10:06:26;0.10;;;0.10;;
61116;SDS011;47002;50.856;6.580;2022-08-16T10:08:52;0.20;;;0.20;;
61116;SDS011;47002;50.856;6.580;2022-08-16T10:11:18;0.10;;;0.10;;
61116;SDS011;47002;50.856;6.580;2022-08-16T10:13:45;0.20;;;0.20;;
61116;SDS011;47002;50.856;6.580;2022-08-16T10:16:11;0.20;;;0.20;;
61116;SDS011;47002;50.856;6.580;2022-08-16T10:18:37;0.20;;;0.20;;
61116;SDS011;47002;50.856;6.580;2022-08-16T10:21:02;0.20;;;0.20;;
61116;SDS011;47002;50.856;6.580;2022-08-16T10:23:28;0.20;;;0.20;;
61116;SDS011;47002;50.856;6.580;2022-08-16T10:25:54;0.20;;;0.20;;
61116;SDS011;47002;50.856;6.580;2022-08-16T10:28:20;0.20;;;0.20;;
61116;SDS011;47002;50.856;6.580;2022-08-16T10:30:47;0.20;;;0.20;;
61116;SDS011;47002;50.856;6.580;2022-08-16T10:33:13;0.20;;;0.20;;
61116;SDS011;47002;50.856;6.580;2022-08-16T10:35:39;0.20;;;0.20;;
61116;SDS011;47002;50.856;6.580;2022-08-16T10:38:05;0.20;;;0.20;;
61116;SDS011;47002;50.856;6.580;2022-08-16T10:40:30;0.20;;;0.20;;
61116;SDS011;47002;50.856;6.580;2022-08-16T10:42:56;0.20;;;0.20;;
61116;SDS011;47002;50.856;6.580;2022-08-16T10:45:22;0.20;;;0.20;;
61116;SDS011;47002;50.856;6.580;2022-08-16T10:47:49;0.20;;;0.20;;
61116;SDS011;47002;50.856;6.580;2022-08-16T10:50:15;0.20;;;0.20;;
61116;SDS011;47002;50.856;6.580;2022-08-16T10:52:41;0.20;;;0.20;;
61116;SDS011;47002;50.856;6.580;2022-08-16T10:55:07;0.20;;;0.20;;
61116;SDS011;47002;50.856;6.580;2022-08-16T10:57:33;0.20;;;0.20;;
61116;SDS011;47002;50.856;6.580;2022-08-16T10:59:59;0.20;;;0.20;;
61116;SDS011;47002;50.856;6.580;2022-08-16T11:02:25;0.30;;;0.30;;
61116;SDS011;47002;50.856;6.580;2022-08-16T11:04:52;0.30;;;0.30;;
61116;SDS011;47002;50.856;6.580;2022-08-16T11:07:18;0.20;;;0.20;;
61116;SDS011;47002;50.856;6.580;2022-08-16T11:09:43;0.30;;;0.30;;
61116;SDS011;47002;50.856;6.580;2022-08-16T11:12:09;0.30;;;0.30;;
61116;SDS011;47002;50.856;6.580;2022-08-16T11:14:35;0.30;;;0.30;;
61116;SDS011;47002;50.856;6.580;2022-08-16T11:17:01;0.30;;;0.30;;
61116;SDS011;47002;50.856;6.580;2022-08-16T11:19:28;0.30;;;0.30;;
61116;SDS011;47002;50.856;6.580;2022-08-16T11:21:55;0.30;;;0.30;;
61116;SDS011;47002;50.856;6.580;2022-08-16T11:24:21;0.30;;;0.30;;
61116;SDS011;47002;50.856;6.580;2022-08-16T11:26:47;0.30;;;0.30;;
61116;SDS011;47002;50.856;6.580;2022-08-16T11:29:13;0.30;;;0.30;;
61116;SDS011;47002;50.856;6.580;2022-08-16T11:31:38;0.30;;;0.30;;
61116;SDS011;47002;50.856;6.580;2022-08-16T11:34:04;0.30;;;0.30;;
61116;SDS011;47002;50.856;6.580;2022-08-16T11:36:30;0.30;;;0.30;;
61116;SDS011;47002;50.856;6.580;2022-08-16T11:38:57;0.30;;;0.30;;
61116;SDS011;47002;50.856;6.580;2022-08-16T11:41:23;0.30;;;0.30;;
61116;SDS011;47002;50.856;6.580;2022-08-16T11:43:49;0.40;;;0.40;;
61116;SDS011;47002;50.856;6.580;2022-08-16T11:46:15;0.30;;;0.30;;
61116;SDS011;47002;50.856;6.580;2022-08-16T11:48:40;0.30;;;0.30;;
61116;SDS011;47002;50.856;6.580;2022-08-16T11:51:06;0.30;;;0.30;;
61116;SDS011;47002;50.856;6.580;2022-08-16T11:53:32;0.35;;;0.35;;
61116;SDS011;47002;50.856;6.580;2022-08-16T11:55:59;0.40;;;0.40;;
61116;SDS011;47002;50.856;6.580;2022-08-16T11:58:26;0.30;;;0.30;;
61116;SDS011;47002;50.856;6.580;2022-08-16T12:00:54;0.30;;;0.30;;
61116;SDS011;47002;50.856;6.580;2022-08-16T12:03:22;0.30;;;0.30;;
61116;SDS011;47002;50.856;6.580;2022-08-16T12:05:49;0.30;;;0.30;;
61116;SDS011;47002;50.856;6.580;2022-08-16T12:08:15;0.40;;;0.40;;
61116;SDS011;47002;50.856;6.580;2022-08-16T12:10:41;0.35;;;0.35;;
61116;SDS011;47002;50.856;6.580;2022-08-16T12:13:08;0.32;;;0.32;;
61116;SDS011;47002;50.856;6.580;2022-08-16T12:15:34;0.30;;;0.30;;
61116;SDS011;47002;50.856;6.580;2022-08-16T12:18:01;0.40;;;0.40;;
61116;SDS011;47002;50.856;6.580;2022-08-16T12:20:30;0.40;;;0.40;;
61116;SDS011;47002;50.856;6.580;2022-08-16T12:22:58;0.30;;;0.30;;
61116;SDS011;47002;50.856;6.580;2022-08-16T12:25:25;0.30;;;0.30;;
61116;SDS011;47002;50.856;6.580;2022-08-16T12:27:52;0.40;;;0.40;;
61116;SDS011;47002;50.856;6.580;2022-08-16T12:30:21;0.40;;;0.40;;
61116;SDS011;47002;50.856;6.580;2022-08-16T12:32:48;0.40;;;0.40;;
61116;SDS011;47002;50.856;6.580;2022-08-16T12:35:15;0.40;;;0.40;;
61116;SDS011;47002;50.856;6.580;2022-08-16T12:37:42;0.40;;;0.40;;
61116;SDS011;47002;50.856;6.580;2022-08-16T12:40:09;0.40;;;0.40;;
61116;SDS011;47002;50.856;6.580;2022-08-16T12:42:36;0.40;;;0.40;;
61116;SDS011;47002;50.856;6.580;2022-08-16T12:45:03;0.40;;;0.40;;
61116;SDS011;47002;50.856;6.580;2022-08-16T12:47:31;0.40;;;0.40;;
61116;SDS011;47002;50.856;6.580;2022-08-16T12:49:57;0.40;;;0.40;;
61116;SDS011;47002;50.856;6.580;2022-08-16T12:52:22;0.47;;;0.47;;
61116;SDS011;47002;50.856;6.580;2022-08-16T12:54:48;0.40;;;0.40;;
61116;SDS011;47002;50.856;6.580;2022-08-16T12:57:14;0.47;;;0.47;;
61116;SDS011;47002;50.856;6.580;2022-08-16T12:59:40;0.40;;;0.40;;
61116;SDS011;47002;50.856;6.580;2022-08-16T13:02:05;0.50;;;0.50;;
61116;SDS011;47002;50.856;6.580;2022-08-16T13:04:33;0.50;;;0.50;;
61116;SDS011;47002;50.856;6.580;2022-08-16T13:06:59;0.50;;;0.50;;
61116;SDS011;47002;50.856;6.580;2022-08-16T13:09:25;0.50;;;0.50;;
61116;SDS011;47002;50.856;6.580;2022-08-16T13:11:54;0.50;;;0.50;;
61116;SDS011;47002;50.856;6.580;2022-08-16T13:14:22;0.50;;;0.50;;
61116;SDS011;47002;50.856;6.580;2022-08-16T13:16:48;0.50;;;0.50;;
61116;SDS011;47002;50.856;6.580;2022-08-16T13:19:14;0.50;;;0.50;;
61116;SDS011;47002;50.856;6.580;2022-08-16T13:21:41;0.50;;;0.50;;
61116;SDS011;47002;50.856;6.580;2022-08-16T13:24:06;0.50;;;0.50;;
61116;SDS011;47002;50.856;6.580;2022-08-16T13:26:32;0.50;;;0.50;;
61116;SDS011;47002;50.856;6.580;2022-08-16T13:28:58;0.57;;;0.57;;
61116;SDS011;47002;50.856;6.580;2022-08-16T13:31:23;0.60;;;0.57;;
61116;SDS011;47002;50.856;6.580;2022-08-16T13:33:49;0.55;;;0.52;;
61116;SDS011;47002;50.856;6.580;2022-08-16T13:36:15;0.70;;;0.65;;
61116;SDS011;47002;50.856;6.580;2022-08-16T13:38:42;0.70;;;0.70;;
61116;SDS011;47002;50.856;6.580;2022-08-16T13:41:09;0.80;;;0.80;;
61116;SDS011;47002;50.856;6.580;2022-08-16T13:43:35;1.23;;;1.13;;
61116;SDS011;47002;50.856;6.580;2022-08-16T13:46:02;1.50;;;1.40;;
61116;SDS011;47002;50.856;6.580;2022-08-16T13:48:28;2.10;;;2.00;;
61116;SDS011;47002;50.856;6.580;2022-08-16T13:50:54;2.35;;;2.25;;
61116;SDS011;47002;50.856;6.580;2022-08-16T13:53:21;2.85;;;2.75;;
61116;SDS011;47002;50.856;6.580;2022-08-16T13:55:48;3.28;;;3.08;;
61116;SDS011;47002;50.856;6.580;2022-08-16T13:58:14;3.80;;;3.60;;
61116;SDS011;47002;50.856;6.580;2022-08-16T14:00:40;3.80;;;3.60;;
61116;SDS011;47002;50.856;6.580;2022-08-16T14:03:06;4.15;;;3.95;;
61116;SDS011;47002;50.856;6.580;2022-08-16T14:05:32;4.60;;;4.40;;
61116;SDS011;47002;50.856;6.580;2022-08-16T14:07:58;5.20;;;4.90;;
61116;SDS011;47002;50.856;6.580;2022-08-16T14:10:23;5.50;;;5.20;;
61116;SDS011;47002;50.856;6.580;2022-08-16T14:12:50;6.78;;;6.47;;
61116;SDS011;47002;50.856;6.580;2022-08-16T14:15:16;7.60;;;7.20;;
61116;SDS011;47002;50.856;6.580;2022-08-16T14:17:42;8.00;;;7.60;;
61116;SDS011;47002;50.856;6.580;2022-08-16T14:20:08;8.38;;;7.97;;
61116;SDS011;47002;50.856;6.580;2022-08-16T14:22:36;7.80;;;7.40;;
61116;SDS011;47002;50.856;6.580;2022-08-16T14:25:03;7.90;;;7.50;;
61116;SDS011;47002;50.856;6.580;2022-08-16T14:27:30;7.78;;;7.38;;
61116;SDS011;47002;50.856;6.580;2022-08-16T14:29:57;8.18;;;7.78;;
61116;SDS011;47002;50.856;6.580;2022-08-16T14:32:25;8.30;;;7.90;;
61116;SDS011;47002;50.856;6.580;2022-08-16T14:34:52;8.30;;;7.90;;
61116;SDS011;47002;50.856;6.580;2022-08-16T14:37:19;8.32;;;7.93;;
61116;SDS011;47002;50.856;6.580;2022-08-16T14:39:45;9.23;;;8.73;;
61116;SDS011;47002;50.856;6.580;2022-08-16T14:42:11;9.32;;;8.82;;